sensor_id;sensor_type;location;lat;lon;timestamp;P1;durP1;ratioP1;P2;durP2;ratioP2
66870;SDS011;53780;44.998;9.926;2023-07-31T00:02:57;21.25;;;14.75;;
66870;SDS011;53780;44.998;9.926;2023-07-31T00:06:01;19.20;;;14.30;;
66870;SDS011;53780;44.998;9.926;2023-07-31T00:09:05;18.73;;;14.53;;
66870;SDS011;53780;44.998;9.926;2023-07-31T00:12:09;19.30;;;14.60;;
66870;SDS011;53780;44.998;9.926;2023-07-31T00:15:13;19.85;;;14.73;;
66870;SDS011;53780;44.998;9.926;2023-07-31T00:18:19;19.85;;;15.18;;
66870;SDS011;53780;44.998;9.926;2023-07-31T00:21:23;24.23;;;16.73;;
66870;SDS011;53780;44.998;9.926;2023-07-31T00:24:26;22.60;;;16.47;;
66870;SDS011;53780;44.998;9.926;2023-07-31T00:27:30;21.40;;;15.38;;
66870;SDS011;53780;44.998;9.926;2023-07-31T00:30:35;20.73;;;16.08;;
66870;SDS011;53780;44.998;9.926;2023-07-31T00:33:38;24.05;;;17.27;;
66870;SDS011;53780;44.998;9.926;2023-07-31T00:36:42;24.20;;;18.17;;
66870;SDS011;53780;44.998;9.926;2023-07-31T00:39:46;20.70;;;16.27;;
66870;SDS011;53780;44.998;9.926;2023-07-31T00:42:49;23.95;;;16.73;;
66870;SDS011;53780;44.998;9.926;2023-07-31T00:45:53;23.50;;;16.90;;
66870;SDS011;53780;44.998;9.926;2023-07-31T00:48:56;25.45;;;17.55;;
66870;SDS011;53780;44.998;9.926;2023-07-31T00:52:01;22.58;;;16.25;;
66870;SDS011;53780;44.998;9.926;2023-07-31T00:55:06;22.20;;;15.40;;
66870;SDS011;53780;44.998;9.926;2023-07-31T00:58:11;22.92;;;16.10;;
66870;SDS011;53780;44.998;9.926;2023-07-31T01:01:15;24.90;;;15.85;;
66870;SDS011;53780;44.998;9.926;2023-07-31T01:04:19;24.40;;;15.70;;
66870;SDS011;53780;44.998;9.926;2023-07-31T01:07:30;21.80;;;15.15;;
66870;SDS011;53780;44.998;9.926;2023-07-31T01:10:46;21.60;;;15.03;;
66870;SDS011;53780;44.998;9.926;2023-07-31T01:13:55;22.17;;;14.95;;
66870;SDS011;53780;44.998;9.926;2023-07-31T01:17:00;21.73;;;15.88;;
66870;SDS011;53780;44.998;9.926;2023-07-31T01:20:05;22.55;;;15.02;;
66870;SDS011;53780;44.998;9.926;2023-07-31T01:27:34;22.33;;;14.80;;
66870;SDS011;53780;44.998;9.926;2023-07-31T01:30:20;22.85;;;15.63;;
66870;SDS011;53780;44.998;9.926;2023-07-31T01:33:28;22.17;;;15.75;;
66870;SDS011;53780;44.998;9.926;2023-07-31T01:36:32;22.42;;;15.50;;
66870;SDS011;53780;44.998;9.926;2023-07-31T01:39:37;23.40;;;15.68;;
66870;SDS011;53780;44.998;9.926;2023-07-31T01:42:42;23.30;;;15.10;;
66870;SDS011;53780;44.998;9.926;2023-07-31T01:45:46;20.52;;;14.95;;
66870;SDS011;53780;44.998;9.926;2023-07-31T01:48:50;20.70;;;14.50;;
66870;SDS011;53780;44.998;9.926;2023-07-31T01:51:54;20.02;;;13.38;;
66870;SDS011;53780;44.998;9.926;2023-07-31T01:54:59;18.58;;;12.93;;
66870;SDS011;53780;44.998;9.926;2023-07-31T01:58:03;20.90;;;13.00;;
66870;SDS011;53780;44.998;9.926;2023-07-31T02:01:07;19.42;;;12.90;;
66870;SDS011;53780;44.998;9.926;2023-07-31T02:04:11;21.48;;;13.32;;
66870;SDS011;53780;44.998;9.926;2023-07-31T02:07:15;19.10;;;12.65;;
66870;SDS011;53780;44.998;9.926;2023-07-31T02:10:18;20.38;;;13.23;;
66870;SDS011;53780;44.998;9.926;2023-07-31T02:13:22;19.37;;;12.03;;
66870;SDS011;53780;44.998;9.926;2023-07-31T02:16:26;17.42;;;12.30;;
66870;SDS011;53780;44.998;9.926;2023-07-31T02:19:30;17.35;;;12.05;;
66870;SDS011;53780;44.998;9.926;2023-07-31T02:22:34;18.63;;;12.38;;
66870;SDS011;53780;44.998;9.926;2023-07-31T02:25:40;17.15;;;12.00;;
66870;SDS011;53780;44.998;9.926;2023-07-31T02:28:43;17.03;;;12.20;;
66870;SDS011;53780;44.998;9.926;2023-07-31T02:31:49;19.70;;;12.18;;
66870;SDS011;53780;44.998;9.926;2023-07-31T02:34:53;18.63;;;12.88;;
66870;SDS011;53780;44.998;9.926;2023-07-31T02:37:57;18.10;;;12.50;;
66870;SDS011;53780;44.998;9.926;2023-07-31T02:41:00;18.70;;;12.40;;
66870;SDS011;53780;44.998;9.926;2023-07-31T02:44:04;18.43;;;12.10;;
66870;SDS011;53780;44.998;9.926;2023-07-31T02:47:08;17.80;;;12.20;;
66870;SDS011;53780;44.998;9.926;2023-07-31T02:50:11;16.85;;;11.38;;
66870;SDS011;53780;44.998;9.926;2023-07-31T02:53:15;16.52;;;11.05;;
66870;SDS011;53780;44.998;9.926;2023-07-31T02:56:19;16.40;;;11.75;;
66870;SDS011;53780;44.998;9.926;2023-07-31T02:59:23;15.80;;;11.00;;
66870;SDS011;53780;44.998;9.926;2023-07-31T03:02:31;16.77;;;11.40;;
66870;SDS011;53780;44.998;9.926;2023-07-31T03:05:34;17.58;;;10.95;;
66870;SDS011;53780;44.998;9.926;2023-07-31T03:08:38;15.57;;;10.77;;
66870;SDS011;53780;44.998;9.926;2023-07-31T03:11:42;16.33;;;10.52;;
66870;SDS011;53780;44.998;9.926;2023-07-31T03:14:45;15.27;;;10.50;;
66870;SDS011;53780;44.998;9.926;2023-07-31T03:17:49;16.75;;;9.80;;
66870;SDS011;53780;44.998;9.926;2023-07-31T03:20:53;17.42;;;10.45;;
66870;SDS011;53780;44.998;9.926;2023-07-31T03:23:57;16.85;;;10.43;;
66870;SDS011;53780;44.998;9.926;2023-07-31T03:27:00;15.85;;;10.20;;
66870;SDS011;53780;44.998;9.926;2023-07-31T03:30:04;17.07;;;10.73;;
66870;SDS011;53780;44.998;9.926;2023-07-31T03:33:09;16.30;;;10.70;;
66870;SDS011;53780;44.998;9.926;2023-07-31T03:36:13;19.27;;;10.57;;
66870;SDS011;53780;44.998;9.926;2023-07-31T03:39:17;17.05;;;10.60;;
66870;SDS011;53780;44.998;9.926;2023-07-31T03:42:21;16.38;;;10.05;;
66870;SDS011;53780;44.998;9.926;2023-07-31T03:45:28;17.13;;;11.00;;
66870;SDS011;53780;44.998;9.926;2023-07-31T03:48:31;18.63;;;10.63;;
66870;SDS011;53780;44.998;9.926;2023-07-31T03:51:35;17.23;;;11.05;;
66870;SDS011;53780;44.998;9.926;2023-07-31T03:54:39;16.17;;;11.25;;
66870;SDS011;53780;44.998;9.926;2023-07-31T03:57:43;17.38;;;11.25;;
66870;SDS011;53780;44.998;9.926;2023-07-31T04:00:47;17.80;;;11.40;;
66870;SDS011;53780;44.998;9.926;2023-07-31T04:03:51;15.93;;;11.30;;
66870;SDS011;53780;44.998;9.926;2023-07-31T04:06:54;17.63;;;11.25;;
66870;SDS011;53780;44.998;9.926;2023-07-31T04:09:59;17.88;;;11.60;;
66870;SDS011;53780;44.998;9.926;2023-07-31T04:13:03;20.10;;;11.45;;
66870;SDS011;53780;44.998;9.926;2023-07-31T04:16:07;18.07;;;11.33;;
66870;SDS011;53780;44.998;9.926;2023-07-31T04:19:10;18.48;;;11.88;;
66870;SDS011;53780;44.998;9.926;2023-07-31T04:22:14;19.30;;;11.45;;
66870;SDS011;53780;44.998;9.926;2023-07-31T04:25:18;17.20;;;11.55;;
66870;SDS011;53780;44.998;9.926;2023-07-31T04:28:22;17.27;;;11.43;;
66870;SDS011;53780;44.998;9.926;2023-07-31T04:31:25;17.67;;;11.27;;
66870;SDS011;53780;44.998;9.926;2023-07-31T04:34:29;17.33;;;12.07;;
66870;SDS011;53780;44.998;9.926;2023-07-31T04:37:33;18.92;;;11.98;;
66870;SDS011;53780;44.998;9.926;2023-07-31T04:40:36;18.25;;;11.75;;
66870;SDS011;53780;44.998;9.926;2023-07-31T04:43:40;22.35;;;11.88;;
66870;SDS011;53780;44.998;9.926;2023-07-31T04:46:44;19.43;;;12.00;;
66870;SDS011;53780;44.998;9.926;2023-07-31T04:49:48;19.20;;;11.57;;
66870;SDS011;53780;44.998;9.926;2023-07-31T04:52:52;19.30;;;11.52;;
66870;SDS011;53780;44.998;9.926;2023-07-31T04:55:56;17.05;;;11.63;;
66870;SDS011;53780;44.998;9.926;2023-07-31T04:59:00;18.17;;;11.43;;
66870;SDS011;53780;44.998;9.926;2023-07-31T05:02:03;17.90;;;11.50;;
66870;SDS011;53780;44.998;9.926;2023-07-31T05:05:07;19.58;;;11.50;;
66870;SDS011;53780;44.998;9.926;2023-07-31T05:08:11;18.30;;;11.50;;
66870;SDS011;53780;44.998;9.926;2023-07-31T05:11:15;19.70;;;11.32;;
66870;SDS011;53780;44.998;9.926;2023-07-31T05:14:19;17.75;;;10.77;;
66870;SDS011;53780;44.998;9.926;2023-07-31T05:17:23;16.60;;;10.73;;
66870;SDS011;53780;44.998;9.926;2023-07-31T05:20:27;16.10;;;10.75;;
66870;SDS011;53780;44.998;9.926;2023-07-31T05:23:31;18.10;;;10.65;;
66870;SDS011;53780;44.998;9.926;2023-07-31T05:26:36;16.88;;;11.00;;
66870;SDS011;53780;44.998;9.926;2023-07-31T05:29:40;18.15;;;9.98;;
66870;SDS011;53780;44.998;9.926;2023-07-31T05:32:44;13.43;;;9.80;;
66870;SDS011;53780;44.998;9.926;2023-07-31T05:35:48;14.10;;;9.57;;
66870;SDS011;53780;44.998;9.926;2023-07-31T05:38:52;14.02;;;9.43;;
66870;SDS011;53780;44.998;9.926;2023-07-31T05:41:56;13.75;;;9.18;;
66870;SDS011;53780;44.998;9.926;2023-07-31T05:44:59;15.40;;;8.85;;
66870;SDS011;53780;44.998;9.926;2023-07-31T05:48:03;13.50;;;7.93;;
66870;SDS011;53780;44.998;9.926;2023-07-31T05:51:07;11.77;;;8.07;;
66870;SDS011;53780;44.998;9.926;2023-07-31T05:54:11;11.60;;;7.45;;
66870;SDS011;53780;44.998;9.926;2023-07-31T05:57:15;12.23;;;7.57;;
66870;SDS011;53780;44.998;9.926;2023-07-31T06:00:19;11.52;;;8.07;;
66870;SDS011;53780;44.998;9.926;2023-07-31T06:03:24;13.40;;;8.10;;
66870;SDS011;53780;44.998;9.926;2023-07-31T06:06:27;11.18;;;7.63;;
66870;SDS011;53780;44.998;9.926;2023-07-31T06:09:31;13.48;;;8.10;;
66870;SDS011;53780;44.998;9.926;2023-07-31T06:12:35;11.70;;;8.02;;
66870;SDS011;53780;44.998;9.926;2023-07-31T06:15:39;11.75;;;7.82;;
66870;SDS011;53780;44.998;9.926;2023-07-31T06:18:43;15.87;;;9.00;;
66870;SDS011;53780;44.998;9.926;2023-07-31T06:21:46;12.90;;;8.18;;
66870;SDS011;53780;44.998;9.926;2023-07-31T06:24:50;11.90;;;7.95;;
66870;SDS011;53780;44.998;9.926;2023-07-31T06:27:54;11.77;;;7.13;;
66870;SDS011;53780;44.998;9.926;2023-07-31T06:30:58;11.70;;;7.32;;
66870;SDS011;53780;44.998;9.926;2023-07-31T06:34:04;21.53;;;7.70;;
66870;SDS011;53780;44.998;9.926;2023-07-31T06:37:08;12.13;;;7.00;;
66870;SDS011;53780;44.998;9.926;2023-07-31T06:40:12;11.88;;;7.90;;
66870;SDS011;53780;44.998;9.926;2023-07-31T06:43:16;10.88;;;6.90;;
66870;SDS011;53780;44.998;9.926;2023-07-31T06:46:20;10.40;;;6.50;;
66870;SDS011;53780;44.998;9.926;2023-07-31T06:49:26;12.43;;;7.17;;
66870;SDS011;53780;44.998;9.926;2023-07-31T06:52:30;10.93;;;6.40;;
66870;SDS011;53780;44.998;9.926;2023-07-31T06:55:33;11.25;;;6.70;;
66870;SDS011;53780;44.998;9.926;2023-07-31T06:58:37;9.68;;;6.10;;
66870;SDS011;53780;44.998;9.926;2023-07-31T07:01:41;11.00;;;6.25;;
66870;SDS011;53780;44.998;9.926;2023-07-31T07:04:45;10.50;;;6.37;;
66870;SDS011;53780;44.998;9.926;2023-07-31T07:07:49;10.52;;;7.05;;
66870;SDS011;53780;44.998;9.926;2023-07-31T07:10:55;8.73;;;6.70;;
66870;SDS011;53780;44.998;9.926;2023-07-31T07:13:59;10.80;;;6.50;;
66870;SDS011;53780;44.998;9.926;2023-07-31T07:17:03;12.00;;;7.47;;
66870;SDS011;53780;44.998;9.926;2023-07-31T07:20:08;11.90;;;7.73;;
66870;SDS011;53780;44.998;9.926;2023-07-31T07:23:12;13.18;;;7.85;;
66870;SDS011;53780;44.998;9.926;2023-07-31T07:26:16;10.93;;;6.35;;
66870;SDS011;53780;44.998;9.926;2023-07-31T07:29:20;9.02;;;6.20;;
66870;SDS011;53780;44.998;9.926;2023-07-31T07:32:23;13.40;;;6.90;;
66870;SDS011;53780;44.998;9.926;2023-07-31T07:35:27;7.77;;;5.47;;
66870;SDS011;53780;44.998;9.926;2023-07-31T07:38:33;8.13;;;5.53;;
66870;SDS011;53780;44.998;9.926;2023-07-31T07:41:37;10.23;;;5.65;;
66870;SDS011;53780;44.998;9.926;2023-07-31T07:44:41;8.80;;;5.30;;
66870;SDS011;53780;44.998;9.926;2023-07-31T07:47:46;10.25;;;4.93;;
66870;SDS011;53780;44.998;9.926;2023-07-31T07:50:52;9.43;;;5.03;;
66870;SDS011;53780;44.998;9.926;2023-07-31T07:53:56;7.95;;;4.55;;
66870;SDS011;53780;44.998;9.926;2023-07-31T07:57:00;9.77;;;5.30;;
66870;SDS011;53780;44.998;9.926;2023-07-31T08:00:04;6.97;;;4.78;;
66870;SDS011;53780;44.998;9.926;2023-07-31T08:03:17;8.65;;;3.80;;
66870;SDS011;53780;44.998;9.926;2023-07-31T08:06:20;6.20;;;3.80;;
66870;SDS011;53780;44.998;9.926;2023-07-31T08:09:25;6.30;;;4.43;;
66870;SDS011;53780;44.998;9.926;2023-07-31T08:12:29;7.05;;;4.40;;
66870;SDS011;53780;44.998;9.926;2023-07-31T08:15:33;7.97;;;4.45;;
66870;SDS011;53780;44.998;9.926;2023-07-31T08:18:37;6.63;;;4.88;;
66870;SDS011;53780;44.998;9.926;2023-07-31T08:21:40;8.35;;;4.97;;
66870;SDS011;53780;44.998;9.926;2023-07-31T08:24:44;6.23;;;4.37;;
66870;SDS011;53780;44.998;9.926;2023-07-31T08:27:48;5.80;;;4.60;;
66870;SDS011;53780;44.998;9.926;2023-07-31T08:30:52;6.93;;;4.60;;
66870;SDS011;53780;44.998;9.926;2023-07-31T08:33:56;6.32;;;4.53;;
66870;SDS011;53780;44.998;9.926;2023-07-31T08:36:59;7.32;;;4.25;;
66870;SDS011;53780;44.998;9.926;2023-07-31T08:40:03;6.87;;;4.67;;
66870;SDS011;53780;44.998;9.926;2023-07-31T08:43:08;5.93;;;3.90;;
66870;SDS011;53780;44.998;9.926;2023-07-31T08:46:12;5.57;;;3.55;;
66870;SDS011;53780;44.998;9.926;2023-07-31T08:49:17;7.03;;;4.28;;
66870;SDS011;53780;44.998;9.926;2023-07-31T08:52:23;7.07;;;3.47;;
66870;SDS011;53780;44.998;9.926;2023-07-31T08:55:27;7.03;;;3.80;;
66870;SDS011;53780;44.998;9.926;2023-07-31T08:58:32;5.43;;;3.70;;
66870;SDS011;53780;44.998;9.926;2023-07-31T09:01:37;5.97;;;4.50;;
66870;SDS011;53780;44.998;9.926;2023-07-31T09:04:47;6.60;;;4.65;;
66870;SDS011;53780;44.998;9.926;2023-07-31T09:07:54;7.00;;;4.57;;
66870;SDS011;53780;44.998;9.926;2023-07-31T09:11:00;6.23;;;4.90;;
66870;SDS011;53780;44.998;9.926;2023-07-31T09:14:08;6.10;;;4.18;;
66870;SDS011;53780;44.998;9.926;2023-07-31T09:17:13;5.07;;;4.57;;
66870;SDS011;53780;44.998;9.926;2023-07-31T09:20:18;6.43;;;4.50;;
66870;SDS011;53780;44.998;9.926;2023-07-31T09:23:23;7.60;;;4.90;;
66870;SDS011;53780;44.998;9.926;2023-07-31T09:26:31;5.87;;;4.23;;
66870;SDS011;53780;44.998;9.926;2023-07-31T09:29:39;5.40;;;4.90;;
66870;SDS011;53780;44.998;9.926;2023-07-31T09:32:45;6.93;;;5.40;;
66870;SDS011;53780;44.998;9.926;2023-07-31T09:35:51;5.85;;;4.57;;
66870;SDS011;53780;44.998;9.926;2023-07-31T09:39:01;6.78;;;4.40;;
66870;SDS011;53780;44.998;9.926;2023-07-31T09:42:06;6.80;;;4.80;;
66870;SDS011;53780;44.998;9.926;2023-07-31T09:45:10;5.50;;;4.60;;
66870;SDS011;53780;44.998;9.926;2023-07-31T09:48:15;7.05;;;4.68;;
66870;SDS011;53780;44.998;9.926;2023-07-31T09:51:26;7.50;;;4.57;;
66870;SDS011;53780;44.998;9.926;2023-07-31T09:54:30;5.35;;;4.50;;
66870;SDS011;53780;44.998;9.926;2023-07-31T09:57:36;7.47;;;4.47;;
66870;SDS011;53780;44.998;9.926;2023-07-31T10:00:45;8.77;;;5.10;;
66870;SDS011;53780;44.998;9.926;2023-07-31T10:03:50;6.68;;;5.18;;
66870;SDS011;53780;44.998;9.926;2023-07-31T10:06:53;7.90;;;5.10;;
66870;SDS011;53780;44.998;9.926;2023-07-31T10:09:58;6.82;;;4.95;;
66870;SDS011;53780;44.998;9.926;2023-07-31T10:13:03;6.37;;;5.03;;
66870;SDS011;53780;44.998;9.926;2023-07-31T10:16:08;5.30;;;4.80;;
66870;SDS011;53780;44.998;9.926;2023-07-31T10:19:13;6.53;;;5.18;;
66870;SDS011;53780;44.998;9.926;2023-07-31T10:22:18;6.53;;;5.50;;
66870;SDS011;53780;44.998;9.926;2023-07-31T10:25:23;7.53;;;5.68;;
66870;SDS011;53780;44.998;9.926;2023-07-31T10:28:27;6.53;;;5.50;;
66870;SDS011;53780;44.998;9.926;2023-07-31T10:31:32;5.97;;;5.00;;
66870;SDS011;53780;44.998;9.926;2023-07-31T10:34:39;6.55;;;5.95;;
66870;SDS011;53780;44.998;9.926;2023-07-31T10:37:44;6.60;;;5.30;;
66870;SDS011;53780;44.998;9.926;2023-07-31T10:40:48;6.60;;;5.20;;
66870;SDS011;53780;44.998;9.926;2023-07-31T10:43:57;6.43;;;5.30;;
66870;SDS011;53780;44.998;9.926;2023-07-31T10:47:02;7.72;;;5.70;;
66870;SDS011;53780;44.998;9.926;2023-07-31T10:50:16;7.68;;;5.63;;
66870;SDS011;53780;44.998;9.926;2023-07-31T10:53:23;8.27;;;5.78;;
66870;SDS011;53780;44.998;9.926;2023-07-31T10:56:28;7.82;;;5.20;;
66870;SDS011;53780;44.998;9.926;2023-07-31T10:59:41;6.07;;;5.37;;
66870;SDS011;53780;44.998;9.926;2023-07-31T11:02:55;6.85;;;5.25;;
66870;SDS011;53780;44.998;9.926;2023-07-31T11:06:19;6.25;;;5.45;;
66870;SDS011;53780;44.998;9.926;2023-07-31T11:09:24;6.13;;;5.20;;
66870;SDS011;53780;44.998;9.926;2023-07-31T11:12:32;6.43;;;5.32;;
66870;SDS011;53780;44.998;9.926;2023-07-31T11:15:35;7.33;;;4.50;;
66870;SDS011;53780;44.998;9.926;2023-07-31T11:18:40;6.88;;;4.43;;
66870;SDS011;53780;44.998;9.926;2023-07-31T11:21:47;7.45;;;4.72;;
66870;SDS011;53780;44.998;9.926;2023-07-31T11:24:51;6.82;;;4.40;;
66870;SDS011;53780;44.998;9.926;2023-07-31T11:27:55;5.88;;;4.03;;
66870;SDS011;53780;44.998;9.926;2023-07-31T11:31:00;5.17;;;3.73;;
66870;SDS011;53780;44.998;9.926;2023-07-31T11:34:05;6.50;;;3.38;;
66870;SDS011;53780;44.998;9.926;2023-07-31T11:37:09;4.80;;;3.88;;
66870;SDS011;53780;44.998;9.926;2023-07-31T11:40:13;7.32;;;3.40;;
66870;SDS011;53780;44.998;9.926;2023-07-31T11:43:18;5.95;;;3.85;;
66870;SDS011;53780;44.998;9.926;2023-07-31T11:46:23;7.33;;;3.63;;
66870;SDS011;53780;44.998;9.926;2023-07-31T11:49:27;6.10;;;3.50;;
66870;SDS011;53780;44.998;9.926;2023-07-31T11:52:34;6.72;;;3.45;;
66870;SDS011;53780;44.998;9.926;2023-07-31T11:55:43;6.40;;;3.72;;
66870;SDS011;53780;44.998;9.926;2023-07-31T11:58:58;5.20;;;3.42;;
66870;SDS011;53780;44.998;9.926;2023-07-31T12:02:03;5.47;;;3.30;;
66870;SDS011;53780;44.998;9.926;2023-07-31T12:05:10;5.80;;;3.67;;
66870;SDS011;53780;44.998;9.926;2023-07-31T12:08:17;6.13;;;3.88;;
66870;SDS011;53780;44.998;9.926;2023-07-31T12:11:25;5.82;;;3.47;;
66870;SDS011;53780;44.998;9.926;2023-07-31T12:14:29;6.32;;;3.20;;
66870;SDS011;53780;44.998;9.926;2023-07-31T12:17:36;7.20;;;3.37;;
66870;SDS011;53780;44.998;9.926;2023-07-31T12:20:41;7.85;;;3.40;;
66870;SDS011;53780;44.998;9.926;2023-07-31T12:23:46;6.55;;;3.30;;
66870;SDS011;53780;44.998;9.926;2023-07-31T12:26:50;6.63;;;3.72;;
66870;SDS011;53780;44.998;9.926;2023-07-31T12:29:55;6.53;;;3.60;;
66870;SDS011;53780;44.998;9.926;2023-07-31T12:33:02;8.17;;;3.23;;
66870;SDS011;53780;44.998;9.926;2023-07-31T12:36:11;5.97;;;3.40;;
66870;SDS011;53780;44.998;9.926;2023-07-31T12:39:17;6.55;;;3.20;;
66870;SDS011;53780;44.998;9.926;2023-07-31T12:42:21;5.90;;;3.58;;
66870;SDS011;53780;44.998;9.926;2023-07-31T12:45:27;5.97;;;3.00;;
66870;SDS011;53780;44.998;9.926;2023-07-31T12:48:31;8.53;;;3.53;;
66870;SDS011;53780;44.998;9.926;2023-07-31T12:51:35;6.28;;;3.45;;
66870;SDS011;53780;44.998;9.926;2023-07-31T12:54:38;4.57;;;3.40;;
66870;SDS011;53780;44.998;9.926;2023-07-31T12:57:42;5.57;;;3.20;;
66870;SDS011;53780;44.998;9.926;2023-07-31T13:00:46;5.13;;;3.10;;
66870;SDS011;53780;44.998;9.926;2023-07-31T13:03:50;5.90;;;3.20;;
66870;SDS011;53780;44.998;9.926;2023-07-31T13:06:53;5.45;;;3.38;;
66870;SDS011;53780;44.998;9.926;2023-07-31T13:09:57;5.63;;;3.50;;
66870;SDS011;53780;44.998;9.926;2023-07-31T13:13:03;6.55;;;3.25;;
66870;SDS011;53780;44.998;9.926;2023-07-31T13:16:07;6.45;;;3.50;;
66870;SDS011;53780;44.998;9.926;2023-07-31T13:19:11;5.47;;;3.30;;
66870;SDS011;53780;44.998;9.926;2023-07-31T13:22:14;5.57;;;3.30;;
66870;SDS011;53780;44.998;9.926;2023-07-31T13:25:18;8.00;;;3.80;;
66870;SDS011;53780;44.998;9.926;2023-07-31T13:28:22;5.65;;;3.47;;
66870;SDS011;53780;44.998;9.926;2023-07-31T13:31:26;5.55;;;3.08;;
66870;SDS011;53780;44.998;9.926;2023-07-31T13:34:30;4.87;;;3.27;;
66870;SDS011;53780;44.998;9.926;2023-07-31T13:37:34;5.47;;;3.33;;
66870;SDS011;53780;44.998;9.926;2023-07-31T13:40:38;5.53;;;3.50;;
66870;SDS011;53780;44.998;9.926;2023-07-31T13:43:42;4.50;;;3.00;;
66870;SDS011;53780;44.998;9.926;2023-07-31T13:46:46;4.55;;;3.28;;
66870;SDS011;53780;44.998;9.926;2023-07-31T13:49:50;5.77;;;3.10;;
66870;SDS011;53780;44.998;9.926;2023-07-31T13:52:56;4.68;;;3.13;;
66870;SDS011;53780;44.998;9.926;2023-07-31T13:56:00;4.82;;;3.05;;
66870;SDS011;53780;44.998;9.926;2023-07-31T13:59:04;6.53;;;3.03;;
66870;SDS011;53780;44.998;9.926;2023-07-31T14:02:08;6.00;;;3.38;;
66870;SDS011;53780;44.998;9.926;2023-07-31T14:05:11;5.03;;;3.40;;
66870;SDS011;53780;44.998;9.926;2023-07-31T14:08:15;5.25;;;3.40;;
66870;SDS011;53780;44.998;9.926;2023-07-31T14:11:19;5.85;;;3.08;;
66870;SDS011;53780;44.998;9.926;2023-07-31T14:14:26;5.35;;;3.10;;
66870;SDS011;53780;44.998;9.926;2023-07-31T14:17:29;5.75;;;3.08;;
66870;SDS011;53780;44.998;9.926;2023-07-31T14:20:33;5.77;;;2.90;;
66870;SDS011;53780;44.998;9.926;2023-07-31T14:23:37;4.75;;;3.20;;
66870;SDS011;53780;44.998;9.926;2023-07-31T14:26:41;5.55;;;3.25;;
66870;SDS011;53780;44.998;9.926;2023-07-31T14:29:47;6.88;;;3.33;;
66870;SDS011;53780;44.998;9.926;2023-07-31T14:32:51;4.88;;;3.08;;
66870;SDS011;53780;44.998;9.926;2023-07-31T14:35:55;5.50;;;3.00;;
66870;SDS011;53780;44.998;9.926;2023-07-31T14:38:58;6.43;;;3.40;;
66870;SDS011;53780;44.998;9.926;2023-07-31T14:42:02;6.72;;;3.10;;
66870;SDS011;53780;44.998;9.926;2023-07-31T14:45:06;6.05;;;3.30;;
66870;SDS011;53780;44.998;9.926;2023-07-31T14:48:11;5.35;;;3.30;;
66870;SDS011;53780;44.998;9.926;2023-07-31T14:51:15;5.57;;;3.20;;
66870;SDS011;53780;44.998;9.926;2023-07-31T14:54:20;6.25;;;3.70;;
66870;SDS011;53780;44.998;9.926;2023-07-31T14:57:26;6.93;;;3.55;;
66870;SDS011;53780;44.998;9.926;2023-07-31T15:00:30;6.25;;;3.40;;
66870;SDS011;53780;44.998;9.926;2023-07-31T15:03:33;5.45;;;3.45;;
66870;SDS011;53780;44.998;9.926;2023-07-31T15:06:37;5.77;;;3.00;;
66870;SDS011;53780;44.998;9.926;2023-07-31T15:09:41;6.80;;;3.28;;
66870;SDS011;53780;44.998;9.926;2023-07-31T15:12:45;4.90;;;3.30;;
66870;SDS011;53780;44.998;9.926;2023-07-31T15:15:49;5.30;;;3.30;;
66870;SDS011;53780;44.998;9.926;2023-07-31T15:18:53;5.30;;;3.40;;
66870;SDS011;53780;44.998;9.926;2023-07-31T15:21:57;7.53;;;3.33;;
66870;SDS011;53780;44.998;9.926;2023-07-31T15:25:01;6.45;;;3.40;;
66870;SDS011;53780;44.998;9.926;2023-07-31T15:28:04;5.78;;;3.50;;
66870;SDS011;53780;44.998;9.926;2023-07-31T15:31:10;5.15;;;3.35;;
66870;SDS011;53780;44.998;9.926;2023-07-31T15:34:14;5.85;;;3.78;;
66870;SDS011;53780;44.998;9.926;2023-07-31T15:37:19;6.07;;;3.10;;
66870;SDS011;53780;44.998;9.926;2023-07-31T15:40:22;5.65;;;3.65;;
66870;SDS011;53780;44.998;9.926;2023-07-31T15:43:26;4.97;;;3.45;;
66870;SDS011;53780;44.998;9.926;2023-07-31T15:46:30;6.63;;;3.25;;
66870;SDS011;53780;44.998;9.926;2023-07-31T15:49:34;5.03;;;3.40;;
66870;SDS011;53780;44.998;9.926;2023-07-31T15:52:38;4.90;;;3.43;;
66870;SDS011;53780;44.998;9.926;2023-07-31T15:55:41;6.47;;;3.60;;
66870;SDS011;53780;44.998;9.926;2023-07-31T15:58:45;5.80;;;3.25;;
66870;SDS011;53780;44.998;9.926;2023-07-31T16:01:49;5.93;;;3.60;;
66870;SDS011;53780;44.998;9.926;2023-07-31T16:04:53;5.60;;;3.38;;
66870;SDS011;53780;44.998;9.926;2023-07-31T16:07:56;5.83;;;3.37;;
66870;SDS011;53780;44.998;9.926;2023-07-31T16:11:00;5.70;;;3.17;;
66870;SDS011;53780;44.998;9.926;2023-07-31T16:14:04;15.23;;;4.20;;
66870;SDS011;53780;44.998;9.926;2023-07-31T16:17:08;5.70;;;3.10;;
66870;SDS011;53780;44.998;9.926;2023-07-31T16:20:11;5.05;;;3.40;;
66870;SDS011;53780;44.998;9.926;2023-07-31T16:23:15;4.97;;;2.93;;
66870;SDS011;53780;44.998;9.926;2023-07-31T16:26:19;5.40;;;3.10;;
66870;SDS011;53780;44.998;9.926;2023-07-31T16:29:23;5.75;;;2.85;;
66870;SDS011;53780;44.998;9.926;2023-07-31T16:32:27;6.10;;;3.10;;
66870;SDS011;53780;44.998;9.926;2023-07-31T16:35:31;6.80;;;3.10;;
66870;SDS011;53780;44.998;9.926;2023-07-31T16:38:35;6.43;;;3.30;;
66870;SDS011;53780;44.998;9.926;2023-07-31T16:41:39;6.82;;;3.20;;
66870;SDS011;53780;44.998;9.926;2023-07-31T16:44:43;5.15;;;3.00;;
66870;SDS011;53780;44.998;9.926;2023-07-31T16:47:47;6.35;;;3.00;;
66870;SDS011;53780;44.998;9.926;2023-07-31T16:50:51;6.45;;;3.30;;
66870;SDS011;53780;44.998;9.926;2023-07-31T16:53:54;6.80;;;3.50;;
66870;SDS011;53780;44.998;9.926;2023-07-31T16:56:58;4.80;;;3.00;;
66870;SDS011;53780;44.998;9.926;2023-07-31T17:00:02;6.00;;;3.30;;
66870;SDS011;53780;44.998;9.926;2023-07-31T17:03:07;5.82;;;2.80;;
66870;SDS011;53780;44.998;9.926;2023-07-31T17:06:11;5.78;;;2.80;;
66870;SDS011;53780;44.998;9.926;2023-07-31T17:09:15;5.20;;;3.00;;
66870;SDS011;53780;44.998;9.926;2023-07-31T17:12:19;5.65;;;3.00;;
66870;SDS011;53780;44.998;9.926;2023-07-31T17:15:22;7.03;;;3.17;;
66870;SDS011;53780;44.998;9.926;2023-07-31T17:18:27;6.20;;;3.17;;
66870;SDS011;53780;44.998;9.926;2023-07-31T17:21:30;4.85;;;3.03;;
66870;SDS011;53780;44.998;9.926;2023-07-31T17:24:34;7.90;;;2.90;;
66870;SDS011;53780;44.998;9.926;2023-07-31T17:27:38;4.90;;;3.00;;
66870;SDS011;53780;44.998;9.926;2023-07-31T17:30:41;4.97;;;2.78;;
66870;SDS011;53780;44.998;9.926;2023-07-31T17:33:45;4.95;;;2.70;;
66870;SDS011;53780;44.998;9.926;2023-07-31T17:36:49;4.53;;;2.83;;
66870;SDS011;53780;44.998;9.926;2023-07-31T17:39:53;5.17;;;2.80;;
66870;SDS011;53780;44.998;9.926;2023-07-31T17:42:57;5.47;;;2.65;;
66870;SDS011;53780;44.998;9.926;2023-07-31T17:46:01;5.28;;;3.22;;
66870;SDS011;53780;44.998;9.926;2023-07-31T17:49:05;5.28;;;3.00;;
66870;SDS011;53780;44.998;9.926;2023-07-31T17:52:09;5.45;;;3.30;;
66870;SDS011;53780;44.998;9.926;2023-07-31T17:55:14;6.27;;;3.43;;
66870;SDS011;53780;44.998;9.926;2023-07-31T17:58:17;5.63;;;3.10;;
66870;SDS011;53780;44.998;9.926;2023-07-31T18:01:21;6.38;;;3.30;;
66870;SDS011;53780;44.998;9.926;2023-07-31T18:04:25;9.80;;;4.53;;
66870;SDS011;53780;44.998;9.926;2023-07-31T18:07:30;15.00;;;7.85;;
66870;SDS011;53780;44.998;9.926;2023-07-31T18:10:33;25.30;;;12.67;;
66870;SDS011;53780;44.998;9.926;2023-07-31T18:13:37;12.52;;;5.68;;
66870;SDS011;53780;44.998;9.926;2023-07-31T18:16:41;10.45;;;5.32;;
66870;SDS011;53780;44.998;9.926;2023-07-31T18:19:45;19.95;;;7.78;;
66870;SDS011;53780;44.998;9.926;2023-07-31T18:22:49;17.88;;;8.00;;
66870;SDS011;53780;44.998;9.926;2023-07-31T18:25:52;14.17;;;6.37;;